sensor_id;sensor_type;location;lat;lon;timestamp;P1;durP1;ratioP1;P2;durP2;ratioP2
3733;SDS011;1882;52.256;8.874;2023-05-10T00:01:36;7.33;;;5.97;;
3733;SDS011;1882;52.256;8.874;2023-05-10T00:04:21;8.77;;;6.70;;
3733;SDS011;1882;52.256;8.874;2023-05-10T00:06:48;9.37;;;6.47;;
3733;SDS011;1882;52.256;8.874;2023-05-10T00:09:14;7.20;;;6.17;;
3733;SDS011;1882;52.256;8.874;2023-05-10T00:11:47;8.97;;;5.83;;
3733;SDS011;1882;52.256;8.874;2023-05-10T00:14:13;7.13;;;6.23;;
3733;SDS011;1882;52.256;8.874;2023-05-10T00:16:47;9.80;;;6.80;;
3733;SDS011;1882;52.256;8.874;2023-05-10T00:19:17;8.80;;;6.67;;
3733;SDS011;1882;52.256;8.874;2023-05-10T00:21:44;10.40;;;6.70;;
3733;SDS011;1882;52.256;8.874;2023-05-10T00:24:10;9.30;;;6.77;;
3733;SDS011;1882;52.256;8.874;2023-05-10T00:26:38;7.30;;;6.30;;
3733;SDS011;1882;52.256;8.874;2023-05-10T00:29:05;8.60;;;6.57;;
3733;SDS011;1882;52.256;8.874;2023-05-10T00:31:34;8.30;;;6.73;;
3733;SDS011;1882;52.256;8.874;2023-05-10T00:34:00;9.70;;;7.07;;
3733;SDS011;1882;52.256;8.874;2023-05-10T00:36:28;9.00;;;7.40;;
3733;SDS011;1882;52.256;8.874;2023-05-10T00:38:54;9.43;;;7.17;;
3733;SDS011;1882;52.256;8.874;2023-05-10T00:41:22;10.43;;;8.10;;
3733;SDS011;1882;52.256;8.874;2023-05-10T00:43:51;10.80;;;8.20;;
3733;SDS011;1882;52.256;8.874;2023-05-10T00:46:18;13.10;;;8.80;;
3733;SDS011;1882;52.256;8.874;2023-05-10T00:48:45;11.00;;;8.60;;
3733;SDS011;1882;52.256;8.874;2023-05-10T00:51:12;12.10;;;9.20;;
3733;SDS011;1882;52.256;8.874;2023-05-10T00:53:39;13.93;;;9.97;;
3733;SDS011;1882;52.256;8.874;2023-05-10T00:56:07;12.97;;;9.23;;
3733;SDS011;1882;52.256;8.874;2023-05-10T00:58:34;13.63;;;9.80;;
3733;SDS011;1882;52.256;8.874;2023-05-10T01:01:01;20.67;;;10.20;;
3733;SDS011;1882;52.256;8.874;2023-05-10T01:03:28;15.13;;;10.60;;
3733;SDS011;1882;52.256;8.874;2023-05-10T01:05:55;14.47;;;9.60;;
3733;SDS011;1882;52.256;8.874;2023-05-10T01:08:24;15.00;;;10.33;;
3733;SDS011;1882;52.256;8.874;2023-05-10T01:10:52;15.13;;;10.17;;
3733;SDS011;1882;52.256;8.874;2023-05-10T01:13:26;15.10;;;10.17;;
3733;SDS011;1882;52.256;8.874;2023-05-10T01:16:04;14.77;;;10.13;;
3733;SDS011;1882;52.256;8.874;2023-05-10T01:18:33;12.27;;;8.87;;
3733;SDS011;1882;52.256;8.874;2023-05-10T01:43:29;13.27;;;9.83;;
3733;SDS011;1882;52.256;8.874;2023-05-10T01:46:05;13.20;;;9.10;;
3733;SDS011;1882;52.256;8.874;2023-05-10T01:48:41;13.93;;;10.50;;
3733;SDS011;1882;52.256;8.874;2023-05-10T01:51:19;16.57;;;10.13;;
3733;SDS011;1882;52.256;8.874;2023-05-10T01:53:49;12.13;;;9.20;;
3733;SDS011;1882;52.256;8.874;2023-05-10T01:56:25;14.47;;;9.63;;
3733;SDS011;1882;52.256;8.874;2023-05-10T01:58:53;13.90;;;10.20;;
3733;SDS011;1882;52.256;8.874;2023-05-10T02:01:21;15.67;;;10.13;;
3733;SDS011;1882;52.256;8.874;2023-05-10T02:03:52;19.93;;;9.93;;
3733;SDS011;1882;52.256;8.874;2023-05-10T02:06:20;17.20;;;10.07;;
3733;SDS011;1882;52.256;8.874;2023-05-10T02:08:49;16.40;;;9.87;;
3733;SDS011;1882;52.256;8.874;2023-05-10T02:11:18;13.10;;;9.77;;
3733;SDS011;1882;52.256;8.874;2023-05-10T02:13:48;15.30;;;11.00;;
3733;SDS011;1882;52.256;8.874;2023-05-10T02:16:16;21.57;;;10.90;;
3733;SDS011;1882;52.256;8.874;2023-05-10T02:18:44;17.40;;;10.33;;
3733;SDS011;1882;52.256;8.874;2023-05-10T02:21:11;18.80;;;11.97;;
3733;SDS011;1882;52.256;8.874;2023-05-10T02:23:39;18.03;;;12.03;;
3733;SDS011;1882;52.256;8.874;2023-05-10T02:26:06;18.70;;;12.83;;
3733;SDS011;1882;52.256;8.874;2023-05-10T02:28:34;20.90;;;13.13;;
3733;SDS011;1882;52.256;8.874;2023-05-10T02:31:02;23.23;;;15.03;;
3733;SDS011;1882;52.256;8.874;2023-05-10T02:33:34;25.50;;;13.97;;
3733;SDS011;1882;52.256;8.874;2023-05-10T02:36:02;23.03;;;15.03;;
3733;SDS011;1882;52.256;8.874;2023-05-10T02:38:29;22.70;;;14.83;;
3733;SDS011;1882;52.256;8.874;2023-05-10T02:40:58;23.10;;;15.47;;
3733;SDS011;1882;52.256;8.874;2023-05-10T02:43:34;25.07;;;15.23;;
3733;SDS011;1882;52.256;8.874;2023-05-10T02:46:13;20.43;;;14.50;;
3733;SDS011;1882;52.256;8.874;2023-05-10T02:48:48;20.30;;;13.80;;
3733;SDS011;1882;52.256;8.874;2023-05-10T02:51:21;20.60;;;14.20;;
3733;SDS011;1882;52.256;8.874;2023-05-10T02:54:23;17.43;;;11.83;;
3733;SDS011;1882;52.256;8.874;2023-05-10T02:57:09;16.73;;;12.23;;
3733;SDS011;1882;52.256;8.874;2023-05-10T03:00:15;17.20;;;11.73;;
3733;SDS011;1882;52.256;8.874;2023-05-10T03:03:00;16.80;;;11.30;;
3733;SDS011;1882;52.256;8.874;2023-05-10T03:05:55;18.33;;;12.07;;
3733;SDS011;1882;52.256;8.874;2023-05-10T03:08:26;13.10;;;9.10;;
3733;SDS011;1882;52.256;8.874;2023-05-10T03:11:16;9.70;;;7.30;;
3733;SDS011;1882;52.256;8.874;2023-05-10T03:14:16;9.30;;;5.77;;
3733;SDS011;1882;52.256;8.874;2023-05-10T03:20:11;8.37;;;6.30;;
3733;SDS011;1882;52.256;8.874;2023-05-10T03:22:45;9.43;;;6.00;;
3733;SDS011;1882;52.256;8.874;2023-05-10T03:25:29;8.53;;;5.73;;
3733;SDS011;1882;52.256;8.874;2023-05-10T03:28:20;9.17;;;5.90;;
3733;SDS011;1882;52.256;8.874;2023-05-10T03:31:28;7.47;;;5.83;;
3733;SDS011;1882;52.256;8.874;2023-05-10T03:34:44;8.97;;;6.50;;
3733;SDS011;1882;52.256;8.874;2023-05-10T03:37:48;10.00;;;6.97;;
3733;SDS011;1882;52.256;8.874;2023-05-10T03:43:37;7.80;;;6.50;;
3733;SDS011;1882;52.256;8.874;2023-05-10T03:49:10;6.20;;;5.33;;
3733;SDS011;1882;52.256;8.874;2023-05-10T03:51:54;7.73;;;5.67;;
3733;SDS011;1882;52.256;8.874;2023-05-10T03:54:50;6.20;;;5.40;;
3733;SDS011;1882;52.256;8.874;2023-05-10T03:58:01;8.07;;;5.20;;
3733;SDS011;1882;52.256;8.874;2023-05-10T04:01:12;7.90;;;5.33;;
3733;SDS011;1882;52.256;8.874;2023-05-10T04:04:03;9.30;;;5.30;;
3733;SDS011;1882;52.256;8.874;2023-05-10T04:06:43;6.30;;;5.10;;
3733;SDS011;1882;52.256;8.874;2023-05-10T04:09:14;7.33;;;5.77;;
3733;SDS011;1882;52.256;8.874;2023-05-10T04:11:43;8.47;;;6.30;;
3733;SDS011;1882;52.256;8.874;2023-05-10T04:14:39;7.73;;;5.60;;
3733;SDS011;1882;52.256;8.874;2023-05-10T04:17:06;8.23;;;5.90;;
3733;SDS011;1882;52.256;8.874;2023-05-10T04:19:48;8.23;;;6.27;;
3733;SDS011;1882;52.256;8.874;2023-05-10T04:22:36;8.37;;;6.40;;
3733;SDS011;1882;52.256;8.874;2023-05-10T04:25:07;9.70;;;6.20;;
3733;SDS011;1882;52.256;8.874;2023-05-10T04:31:40;9.97;;;6.50;;
3733;SDS011;1882;52.256;8.874;2023-05-10T04:35:11;9.00;;;6.50;;
3733;SDS011;1882;52.256;8.874;2023-05-10T04:37:50;8.90;;;7.00;;
3733;SDS011;1882;52.256;8.874;2023-05-10T04:40:37;10.10;;;6.97;;
3733;SDS011;1882;52.256;8.874;2023-05-10T04:43:31;10.50;;;7.60;;
3733;SDS011;1882;52.256;8.874;2023-05-10T04:46:19;11.63;;;7.10;;
3733;SDS011;1882;52.256;8.874;2023-05-10T04:49:34;10.87;;;7.20;;
3733;SDS011;1882;52.256;8.874;2023-05-10T04:52:12;11.60;;;7.57;;
3733;SDS011;1882;52.256;8.874;2023-05-10T04:55:21;8.20;;;6.30;;
3733;SDS011;1882;52.256;8.874;2023-05-10T04:58:24;9.33;;;6.60;;
3733;SDS011;1882;52.256;8.874;2023-05-10T05:01:07;8.00;;;5.90;;
3733;SDS011;1882;52.256;8.874;2023-05-10T05:03:54;10.20;;;6.47;;
3733;SDS011;1882;52.256;8.874;2023-05-10T05:06:23;9.10;;;6.30;;
3733;SDS011;1882;52.256;8.874;2023-05-10T05:12:53;5.73;;;4.87;;
3733;SDS011;1882;52.256;8.874;2023-05-10T05:15:53;9.90;;;5.57;;
3733;SDS011;1882;52.256;8.874;2023-05-10T05:18:23;7.07;;;5.20;;
3733;SDS011;1882;52.256;8.874;2023-05-10T05:23:52;3.10;;;2.80;;
3733;SDS011;1882;52.256;8.874;2023-05-10T05:26:24;4.90;;;2.37;;
3733;SDS011;1882;52.256;8.874;2023-05-10T05:28:51;2.60;;;2.40;;
3733;SDS011;1882;52.256;8.874;2023-05-10T05:31:54;2.40;;;1.63;;
3733;SDS011;1882;52.256;8.874;2023-05-10T05:34:21;1.60;;;1.50;;
3733;SDS011;1882;52.256;8.874;2023-05-10T05:37:05;1.30;;;1.20;;
3733;SDS011;1882;52.256;8.874;2023-05-10T05:43:43;1.10;;;1.10;;
3733;SDS011;1882;52.256;8.874;2023-05-10T05:49:21;1.40;;;1.30;;
3733;SDS011;1882;52.256;8.874;2023-05-10T05:51:48;1.50;;;1.40;;
3733;SDS011;1882;52.256;8.874;2023-05-10T05:54:28;1.77;;;1.60;;
3733;SDS011;1882;52.256;8.874;2023-05-10T05:57:09;1.87;;;1.77;;
3733;SDS011;1882;52.256;8.874;2023-05-10T05:59:46;1.90;;;1.80;;
3733;SDS011;1882;52.256;8.874;2023-05-10T06:02:54;2.03;;;1.90;;
3733;SDS011;1882;52.256;8.874;2023-05-10T06:05:36;3.00;;;2.00;;
3733;SDS011;1882;52.256;8.874;2023-05-10T06:08:34;2.73;;;2.37;;
3733;SDS011;1882;52.256;8.874;2023-05-10T06:11:21;2.90;;;2.23;;
3733;SDS011;1882;52.256;8.874;2023-05-10T06:14:20;2.03;;;1.93;;
3733;SDS011;1882;52.256;8.874;2023-05-10T06:16:48;2.23;;;2.10;;
3733;SDS011;1882;52.256;8.874;2023-05-10T06:19:15;3.33;;;2.13;;
3733;SDS011;1882;52.256;8.874;2023-05-10T06:21:48;5.20;;;2.70;;
3733;SDS011;1882;52.256;8.874;2023-05-10T06:24:32;2.53;;;2.33;;
3733;SDS011;1882;52.256;8.874;2023-05-10T06:27:00;2.60;;;2.40;;
3733;SDS011;1882;52.256;8.874;2023-05-10T06:29:28;2.50;;;2.30;;
3733;SDS011;1882;52.256;8.874;2023-05-10T06:32:12;2.43;;;2.23;;
3733;SDS011;1882;52.256;8.874;2023-05-10T06:34:47;2.57;;;2.37;;
3733;SDS011;1882;52.256;8.874;2023-05-10T06:37:14;2.30;;;2.00;;
3733;SDS011;1882;52.256;8.874;2023-05-10T06:40:14;2.67;;;2.10;;
3733;SDS011;1882;52.256;8.874;2023-05-10T06:42:45;2.03;;;1.93;;
3733;SDS011;1882;52.256;8.874;2023-05-10T06:48:35;2.07;;;1.90;;
3733;SDS011;1882;52.256;8.874;2023-05-10T06:51:08;6.60;;;2.90;;
3733;SDS011;1882;52.256;8.874;2023-05-10T06:53:35;3.17;;;2.87;;
3733;SDS011;1882;52.256;8.874;2023-05-10T06:56:07;3.07;;;2.80;;
3733;SDS011;1882;52.256;8.874;2023-05-10T06:59:24;4.30;;;2.87;;
3733;SDS011;1882;52.256;8.874;2023-05-10T07:06:10;5.53;;;3.40;;
3733;SDS011;1882;52.256;8.874;2023-05-10T07:09:02;4.90;;;3.70;;
3733;SDS011;1882;52.256;8.874;2023-05-10T07:20:09;7.90;;;3.47;;
3733;SDS011;1882;52.256;8.874;2023-05-10T07:23:30;3.40;;;2.93;;
3733;SDS011;1882;52.256;8.874;2023-05-10T07:33:33;6.10;;;3.77;;
3733;SDS011;1882;52.256;8.874;2023-05-10T07:40:03;6.20;;;3.73;;
3733;SDS011;1882;52.256;8.874;2023-05-10T07:43:10;5.50;;;4.40;;
3733;SDS011;1882;52.256;8.874;2023-05-10T07:45:37;7.13;;;4.30;;
3733;SDS011;1882;52.256;8.874;2023-05-10T07:49:03;5.37;;;4.40;;
3733;SDS011;1882;52.256;8.874;2023-05-10T07:51:30;4.90;;;4.27;;
3733;SDS011;1882;52.256;8.874;2023-05-10T07:54:03;4.73;;;4.10;;
3733;SDS011;1882;52.256;8.874;2023-05-10T07:56:50;11.80;;;4.47;;
3733;SDS011;1882;52.256;8.874;2023-05-10T07:59:32;5.37;;;4.43;;
3733;SDS011;1882;52.256;8.874;2023-05-10T08:05:07;4.60;;;4.20;;
3733;SDS011;1882;52.256;8.874;2023-05-10T08:11:16;5.00;;;4.50;;
3733;SDS011;1882;52.256;8.874;2023-05-10T09:49:37;13.63;;;7.87;;
3733;SDS011;1882;52.256;8.874;2023-05-10T09:52:04;10.37;;;7.17;;
3733;SDS011;1882;52.256;8.874;2023-05-10T10:02:38;12.87;;;7.93;;
3733;SDS011;1882;52.256;8.874;2023-05-10T10:09:28;15.50;;;9.10;;
3733;SDS011;1882;52.256;8.874;2023-05-10T10:23:36;17.50;;;9.70;;
3733;SDS011;1882;52.256;8.874;2023-05-10T10:26:25;15.80;;;9.70;;
3733;SDS011;1882;52.256;8.874;2023-05-10T10:34:40;12.70;;;8.70;;
3733;SDS011;1882;52.256;8.874;2023-05-10T10:37:07;16.43;;;8.67;;
3733;SDS011;1882;52.256;8.874;2023-05-10T10:39:34;14.80;;;9.00;;
3733;SDS011;1882;52.256;8.874;2023-05-10T10:42:06;16.10;;;9.00;;
3733;SDS011;1882;52.256;8.874;2023-05-10T10:44:36;12.67;;;8.47;;
3733;SDS011;1882;52.256;8.874;2023-05-10T10:49:50;18.07;;;8.90;;
3733;SDS011;1882;52.256;8.874;2023-05-10T10:54:50;17.40;;;8.40;;
3733;SDS011;1882;52.256;8.874;2023-05-10T10:57:18;13.23;;;7.50;;
3733;SDS011;1882;52.256;8.874;2023-05-10T10:59:46;10.47;;;7.03;;
3733;SDS011;1882;52.256;8.874;2023-05-10T11:08:08;10.57;;;6.67;;
3733;SDS011;1882;52.256;8.874;2023-05-10T11:10:35;13.20;;;7.57;;
3733;SDS011;1882;52.256;8.874;2023-05-10T11:13:03;15.03;;;6.83;;
3733;SDS011;1882;52.256;8.874;2023-05-10T11:18:19;9.07;;;6.90;;
3733;SDS011;1882;52.256;8.874;2023-05-10T11:20:58;25.77;;;7.07;;
3733;SDS011;1882;52.256;8.874;2023-05-10T11:23:29;13.43;;;7.40;;
3733;SDS011;1882;52.256;8.874;2023-05-10T11:26:00;14.43;;;7.27;;
3733;SDS011;1882;52.256;8.874;2023-05-10T11:28:31;14.60;;;7.50;;
3733;SDS011;1882;52.256;8.874;2023-05-10T11:30:58;14.20;;;7.97;;
3733;SDS011;1882;52.256;8.874;2023-05-10T11:33:25;9.60;;;6.77;;
3733;SDS011;1882;52.256;8.874;2023-05-10T11:35:52;11.93;;;7.73;;
3733;SDS011;1882;52.256;8.874;2023-05-10T11:38:18;13.30;;;6.90;;
3733;SDS011;1882;52.256;8.874;2023-05-10T11:40:45;9.20;;;6.90;;
3733;SDS011;1882;52.256;8.874;2023-05-10T11:43:14;16.53;;;7.33;;
3733;SDS011;1882;52.256;8.874;2023-05-10T11:45:41;9.50;;;6.37;;
3733;SDS011;1882;52.256;8.874;2023-05-10T11:48:08;20.23;;;6.67;;
3733;SDS011;1882;52.256;8.874;2023-05-10T11:50:35;9.53;;;6.67;;
3733;SDS011;1882;52.256;8.874;2023-05-10T11:53:02;10.73;;;6.60;;
3733;SDS011;1882;52.256;8.874;2023-05-10T11:55:29;8.60;;;6.47;;
3733;SDS011;1882;52.256;8.874;2023-05-10T11:58:00;12.87;;;7.13;;
3733;SDS011;1882;52.256;8.874;2023-05-10T12:00:27;8.33;;;5.87;;
3733;SDS011;1882;52.256;8.874;2023-05-10T12:02:54;10.97;;;5.80;;
3733;SDS011;1882;52.256;8.874;2023-05-10T12:05:21;9.73;;;5.80;;
3733;SDS011;1882;52.256;8.874;2023-05-10T12:07:51;9.77;;;5.13;;
3733;SDS011;1882;52.256;8.874;2023-05-10T12:10:18;10.20;;;6.47;;
3733;SDS011;1882;52.256;8.874;2023-05-10T12:12:52;13.20;;;7.60;;
3733;SDS011;1882;52.256;8.874;2023-05-10T12:15:20;11.50;;;7.67;;
3733;SDS011;1882;52.256;8.874;2023-05-10T12:17:49;9.93;;;6.87;;
3733;SDS011;1882;52.256;8.874;2023-05-10T12:20:17;9.00;;;6.27;;
3733;SDS011;1882;52.256;8.874;2023-05-10T12:25:29;7.50;;;5.80;;
3733;SDS011;1882;52.256;8.874;2023-05-10T12:27:57;9.03;;;5.80;;
3733;SDS011;1882;52.256;8.874;2023-05-10T12:30:27;10.23;;;7.07;;
3733;SDS011;1882;52.256;8.874;2023-05-10T12:33:02;9.60;;;6.63;;
3733;SDS011;1882;52.256;8.874;2023-05-10T12:35:38;8.27;;;5.57;;
3733;SDS011;1882;52.256;8.874;2023-05-10T12:38:31;6.73;;;4.80;;
3733;SDS011;1882;52.256;8.874;2023-05-10T12:41:06;7.77;;;5.60;;
3733;SDS011;1882;52.256;8.874;2023-05-10T12:43:34;8.93;;;5.67;;
3733;SDS011;1882;52.256;8.874;2023-05-10T12:46:13;11.47;;;5.77;;
3733;SDS011;1882;52.256;8.874;2023-05-10T12:48:42;7.57;;;5.13;;
3733;SDS011;1882;52.256;8.874;2023-05-10T12:51:10;5.90;;;5.03;;
3733;SDS011;1882;52.256;8.874;2023-05-10T12:53:43;7.67;;;5.73;;
3733;SDS011;1882;52.256;8.874;2023-05-10T12:56:14;9.03;;;6.20;;
3733;SDS011;1882;52.256;8.874;2023-05-10T12:58:41;8.70;;;5.50;;
3733;SDS011;1882;52.256;8.874;2023-05-10T13:01:14;10.37;;;6.10;;
3733;SDS011;1882;52.256;8.874;2023-05-10T13:03:41;8.30;;;5.93;;
3733;SDS011;1882;52.256;8.874;2023-05-10T13:06:09;8.20;;;6.13;;
3733;SDS011;1882;52.256;8.874;2023-05-10T13:08:39;9.53;;;6.53;;
3733;SDS011;1882;52.256;8.874;2023-05-10T13:11:06;8.53;;;7.33;;
3733;SDS011;1882;52.256;8.874;2023-05-10T13:13:33;12.40;;;8.07;;
3733;SDS011;1882;52.256;8.874;2023-05-10T13:15:59;14.20;;;7.83;;
3733;SDS011;1882;52.256;8.874;2023-05-10T13:18:26;11.33;;;7.40;;
3733;SDS011;1882;52.256;8.874;2023-05-10T13:20:53;10.30;;;7.10;;
3733;SDS011;1882;52.256;8.874;2023-05-10T13:23:23;9.90;;;6.33;;
3733;SDS011;1882;52.256;8.874;2023-05-10T13:25:50;13.73;;;6.47;;
3733;SDS011;1882;52.256;8.874;2023-05-10T13:28:24;9.33;;;6.60;;
3733;SDS011;1882;52.256;8.874;2023-05-10T13:30:54;11.90;;;6.83;;
3733;SDS011;1882;52.256;8.874;2023-05-10T13:33:21;10.17;;;6.57;;
3733;SDS011;1882;52.256;8.874;2023-05-10T13:35:53;13.53;;;7.30;;
3733;SDS011;1882;52.256;8.874;2023-05-10T13:38:23;12.10;;;7.80;;
3733;SDS011;1882;52.256;8.874;2023-05-10T13:40:53;12.27;;;7.73;;
3733;SDS011;1882;52.256;8.874;2023-05-10T13:43:24;13.37;;;8.20;;
3733;SDS011;1882;52.256;8.874;2023-05-10T13:46:01;12.07;;;8.20;;
3733;SDS011;1882;52.256;8.874;2023-05-10T13:49:22;11.30;;;7.73;;
3733;SDS011;1882;52.256;8.874;2023-05-10T13:52:40;12.80;;;7.90;;
3733;SDS011;1882;52.256;8.874;2023-05-10T13:55:12;10.67;;;7.57;;
3733;SDS011;1882;52.256;8.874;2023-05-10T13:57:39;9.70;;;6.60;;
3733;SDS011;1882;52.256;8.874;2023-05-10T14:00:07;10.40;;;6.30;;
3733;SDS011;1882;52.256;8.874;2023-05-10T14:02:41;9.90;;;6.17;;
3733;SDS011;1882;52.256;8.874;2023-05-10T14:05:08;12.30;;;6.90;;
3733;SDS011;1882;52.256;8.874;2023-05-10T14:07:35;7.13;;;5.83;;
3733;SDS011;1882;52.256;8.874;2023-05-10T14:10:02;11.77;;;6.80;;
3733;SDS011;1882;52.256;8.874;2023-05-10T14:12:38;10.50;;;6.80;;
3733;SDS011;1882;52.256;8.874;2023-05-10T14:15:05;11.70;;;7.70;;
3733;SDS011;1882;52.256;8.874;2023-05-10T14:17:33;17.10;;;9.27;;
3733;SDS011;1882;52.256;8.874;2023-05-10T14:19:59;16.73;;;10.87;;
3733;SDS011;1882;52.256;8.874;2023-05-10T14:22:35;15.20;;;9.50;;
3733;SDS011;1882;52.256;8.874;2023-05-10T14:25:02;15.00;;;9.90;;
3733;SDS011;1882;52.256;8.874;2023-05-10T14:27:29;16.73;;;10.27;;
3733;SDS011;1882;52.256;8.874;2023-05-10T14:29:59;14.73;;;10.30;;
3733;SDS011;1882;52.256;8.874;2023-05-10T14:32:25;15.70;;;10.90;;
3733;SDS011;1882;52.256;8.874;2023-05-10T14:34:54;18.70;;;9.63;;
3733;SDS011;1882;52.256;8.874;2023-05-10T14:37:22;16.00;;;9.70;;
3733;SDS011;1882;52.256;8.874;2023-05-10T14:39:49;16.20;;;9.83;;
3733;SDS011;1882;52.256;8.874;2023-05-10T14:42:16;12.77;;;8.63;;
3733;SDS011;1882;52.256;8.874;2023-05-10T14:44:43;14.70;;;9.47;;
3733;SDS011;1882;52.256;8.874;2023-05-10T14:47:10;14.37;;;8.93;;
3733;SDS011;1882;52.256;8.874;2023-05-10T14:49:37;14.27;;;8.60;;
3733;SDS011;1882;52.256;8.874;2023-05-10T14:52:04;11.90;;;7.60;;
3733;SDS011;1882;52.256;8.874;2023-05-10T14:54:31;13.70;;;8.40;;
3733;SDS011;1882;52.256;8.874;2023-05-10T14:57:00;12.40;;;8.37;;
3733;SDS011;1882;52.256;8.874;2023-05-10T14:59:27;15.53;;;8.30;;
3733;SDS011;1882;52.256;8.874;2023-05-10T15:01:55;11.20;;;7.87;;
3733;SDS011;1882;52.256;8.874;2023-05-10T15:04:23;11.30;;;7.37;;
3733;SDS011;1882;52.256;8.874;2023-05-10T15:06:54;9.47;;;6.97;;
3733;SDS011;1882;52.256;8.874;2023-05-10T15:09:26;14.43;;;8.00;;
3733;SDS011;1882;52.256;8.874;2023-05-10T15:11:57;14.00;;;7.60;;
3733;SDS011;1882;52.256;8.874;2023-05-10T15:14:27;23.20;;;8.97;;
3733;SDS011;1882;52.256;8.874;2023-05-10T15:16:54;15.30;;;9.13;;
3733;SDS011;1882;52.256;8.874;2023-05-10T15:19:23;15.90;;;9.57;;
3733;SDS011;1882;52.256;8.874;2023-05-10T15:21:54;18.37;;;9.50;;
3733;SDS011;1882;52.256;8.874;2023-05-10T15:24:21;14.10;;;8.33;;
3733;SDS011;1882;52.256;8.874;2023-05-10T15:26:48;24.80;;;10.13;;
3733;SDS011;1882;52.256;8.874;2023-05-10T15:29:15;18.23;;;9.37;;
3733;SDS011;1882;52.256;8.874;2023-05-10T15:31:49;16.47;;;9.10;;
3733;SDS011;1882;52.256;8.874;2023-05-10T15:34:16;21.83;;;9.90;;
3733;SDS011;1882;52.256;8.874;2023-05-10T15:36:44;23.67;;;9.80;;
3733;SDS011;1882;52.256;8.874;2023-05-10T15:39:11;16.90;;;8.63;;
3733;SDS011;1882;52.256;8.874;2023-05-10T15:41:38;17.07;;;9.17;;
3733;SDS011;1882;52.256;8.874;2023-05-10T15:44:05;13.37;;;8.03;;
3733;SDS011;1882;52.256;8.874;2023-05-10T15:46:31;20.00;;;8.40;;
3733;SDS011;1882;52.256;8.874;2023-05-10T15:48:59;12.60;;;7.60;;
3733;SDS011;1882;52.256;8.874;2023-05-10T15:51:27;16.40;;;8.90;;
3733;SDS011;1882;52.256;8.874;2023-05-10T15:53:54;20.50;;;8.43;;
3733;SDS011;1882;52.256;8.874;2023-05-10T15:56:33;17.73;;;9.63;;
3733;SDS011;1882;52.256;8.874;2023-05-10T15:59:00;18.00;;;9.60;;
3733;SDS011;1882;52.256;8.874;2023-05-10T16:01:28;16.90;;;9.87;;
3733;SDS011;1882;52.256;8.874;2023-05-10T16:03:56;16.53;;;9.60;;
3733;SDS011;1882;52.256;8.874;2023-05-10T16:06:23;16.33;;;10.20;;
3733;SDS011;1882;52.256;8.874;2023-05-10T16:08:50;26.17;;;10.00;;
3733;SDS011;1882;52.256;8.874;2023-05-10T16:11:20;19.40;;;10.40;;
3733;SDS011;1882;52.256;8.874;2023-05-10T16:13:48;21.30;;;10.57;;
3733;SDS011;1882;52.256;8.874;2023-05-10T16:16:18;16.53;;;9.90;;
3733;SDS011;1882;52.256;8.874;2023-05-10T16:18:45;15.47;;;8.50;;
3733;SDS011;1882;52.256;8.874;2023-05-10T16:21:12;15.10;;;8.53;;
3733;SDS011;1882;52.256;8.874;2023-05-10T16:23:40;18.77;;;8.40;;
3733;SDS011;1882;52.256;8.874;2023-05-10T16:26:12;14.50;;;8.70;;
3733;SDS011;1882;52.256;8.874;2023-05-10T16:28:39;21.20;;;9.00;;
3733;SDS011;1882;52.256;8.874;2023-05-10T16:31:06;18.20;;;9.40;;
3733;SDS011;1882;52.256;8.874;2023-05-10T16:33:37;19.03;;;9.10;;
3733;SDS011;1882;52.256;8.874;2023-05-10T16:36:07;13.87;;;8.67;;
3733;SDS011;1882;52.256;8.874;2023-05-10T16:38:37;18.03;;;9.50;;
3733;SDS011;1882;52.256;8.874;2023-05-10T16:41:59;17.43;;;9.47;;
3733;SDS011;1882;52.256;8.874;2023-05-10T16:44:46;17.37;;;8.33;;
3733;SDS011;1882;52.256;8.874;2023-05-10T16:47:41;18.00;;;8.90;;
3733;SDS011;1882;52.256;8.874;2023-05-10T16:50:08;22.60;;;10.03;;
3733;SDS011;1882;52.256;8.874;2023-05-10T16:52:35;23.07;;;11.67;;
3733;SDS011;1882;52.256;8.874;2023-05-10T16:55:02;26.50;;;11.43;;
3733;SDS011;1882;52.256;8.874;2023-05-10T16:57:34;24.03;;;11.43;;
3733;SDS011;1882;52.256;8.874;2023-05-10T17:00:02;25.70;;;10.87;;
3733;SDS011;1882;52.256;8.874;2023-05-10T17:02:32;17.73;;;9.67;;
3733;SDS011;1882;52.256;8.874;2023-05-10T17:05:00;19.47;;;9.90;;
3733;SDS011;1882;52.256;8.874;2023-05-10T17:07:27;18.40;;;9.50;;
3733;SDS011;1882;52.256;8.874;2023-05-10T17:10:15;22.60;;;9.47;;
3733;SDS011;1882;52.256;8.874;2023-05-10T17:15:23;19.57;;;9.33;;
3733;SDS011;1882;52.256;8.874;2023-05-10T17:18:07;22.00;;;9.43;;
3733;SDS011;1882;52.256;8.874;2023-05-10T17:20:58;18.10;;;9.80;;
3733;SDS011;1882;52.256;8.874;2023-05-10T17:23:25;16.40;;;9.37;;
3733;SDS011;1882;52.256;8.874;2023-05-10T17:26:06;20.30;;;9.40;;
3733;SDS011;1882;52.256;8.874;2023-05-10T17:29:06;20.87;;;9.10;;
3733;SDS011;1882;52.256;8.874;2023-05-10T17:31:53;16.63;;;10.37;;
3733;SDS011;1882;52.256;8.874;2023-05-10T17:34:49;23.00;;;8.97;;
3733;SDS011;1882;52.256;8.874;2023-05-10T17:41:13;25.27;;;12.17;;
3733;SDS011;1882;52.256;8.874;2023-05-10T17:44:35;20.63;;;11.50;;
3733;SDS011;1882;52.256;8.874;2023-05-10T17:47:40;23.77;;;12.37;;
3733;SDS011;1882;52.256;8.874;2023-05-10T17:50:21;22.43;;;12.27;;
3733;SDS011;1882;52.256;8.874;2023-05-10T17:53:25;26.27;;;12.70;;
3733;SDS011;1882;52.256;8.874;2023-05-10T17:56:23;22.90;;;12.20;;
3733;SDS011;1882;52.256;8.874;2023-05-10T17:59:30;27.23;;;13.60;;
3733;SDS011;1882;52.256;8.874;2023-05-10T18:02:40;24.23;;;12.57;;
3733;SDS011;1882;52.256;8.874;2023-05-10T18:08:10;17.20;;;10.20;;
3733;SDS011;1882;52.256;8.874;2023-05-10T18:14:01;17.57;;;9.80;;
3733;SDS011;1882;52.256;8.874;2023-05-10T18:16:51;18.90;;;9.70;;
3733;SDS011;1882;52.256;8.874;2023-05-10T18:19:30;19.07;;;8.83;;
3733;SDS011;1882;52.256;8.874;2023-05-10T18:22:27;19.43;;;10.60;;
3733;SDS011;1882;52.256;8.874;2023-05-10T18:25:10;16.00;;;9.83;;
3733;SDS011;1882;52.256;8.874;2023-05-10T18:27:37;19.07;;;10.30;;
3733;SDS011;1882;52.256;8.874;2023-05-10T18:30:04;20.20;;;10.60;;
3733;SDS011;1882;52.256;8.874;2023-05-10T18:32:38;18.83;;;9.67;;
3733;SDS011;1882;52.256;8.874;2023-05-10T18:35:12;15.47;;;9.43;;
3733;SDS011;1882;52.256;8.874;2023-05-10T18:58:31;25.30;;;12.13;;
3733;SDS011;1882;52.256;8.874;2023-05-10T19:36:01;23.50;;;11.90;;
3733;SDS011;1882;52.256;8.874;2023-05-10T19:38:35;19.73;;;11.50;;
3733;SDS011;1882;52.256;8.874;2023-05-10T19:41:04;26.27;;;13.63;;
3733;SDS011;1882;52.256;8.874;2023-05-10T19:44:02;26.80;;;12.67;;
3733;SDS011;1882;52.256;8.874;2023-05-10T19:46:29;25.57;;;12.27;;
3733;SDS011;1882;52.256;8.874;2023-05-10T19:49:40;31.30;;;14.60;;
3733;SDS011;1882;52.256;8.874;2023-05-10T19:52:29;25.80;;;12.70;;
3733;SDS011;1882;52.256;8.874;2023-05-10T19:55:14;26.00;;;12.83;;
3733;SDS011;1882;52.256;8.874;2023-05-10T19:58:10;24.47;;;12.70;;
3733;SDS011;1882;52.256;8.874;2023-05-10T20:01:06;21.37;;;11.90;;
3733;SDS011;1882;52.256;8.874;2023-05-10T20:04:01;27.00;;;12.30;;
3733;SDS011;1882;52.256;8.874;2023-05-10T20:06:57;22.53;;;10.87;;
3733;SDS011;1882;52.256;8.874;2023-05-10T20:10:31;21.50;;;11.27;;
3733;SDS011;1882;52.256;8.874;2023-05-10T20:16:51;19.73;;;10.37;;
3733;SDS011;1882;52.256;8.874;2023-05-10T20:20:29;18.90;;;10.23;;
3733;SDS011;1882;52.256;8.874;2023-05-10T20:23:08;23.80;;;10.67;;
3733;SDS011;1882;52.256;8.874;2023-05-10T20:25:57;18.97;;;10.23;;
3733;SDS011;1882;52.256;8.874;2023-05-10T20:28:56;41.23;;;11.60;;
3733;SDS011;1882;52.256;8.874;2023-05-10T20:32:00;27.90;;;9.57;;
3733;SDS011;1882;52.256;8.874;2023-05-10T20:34:57;27.93;;;8.93;;
3733;SDS011;1882;52.256;8.874;2023-05-10T20:37:51;29.27;;;8.83;;
3733;SDS011;1882;52.256;8.874;2023-05-10T20:40:41;25.17;;;8.90;;
3733;SDS011;1882;52.256;8.874;2023-05-10T20:43:28;20.40;;;8.90;;
3733;SDS011;1882;52.256;8.874;2023-05-10T20:46:12;18.93;;;8.47;;
3733;SDS011;1882;52.256;8.874;2023-05-10T20:48:39;18.63;;;5.97;;
3733;SDS011;1882;52.256;8.874;2023-05-10T20:51:22;21.00;;;3.70;;
3733;SDS011;1882;52.256;8.874;2023-05-10T20:53:52;15.13;;;3.60;;
3733;SDS011;1882;52.256;8.874;2023-05-10T20:56:51;10.33;;;2.57;;
3733;SDS011;1882;52.256;8.874;2023-05-10T20:59:40;7.20;;;2.50;;